createdAt,value
2023-01-27T00:00:23.091Z,1024.17
2023-01-27T00:01:23.335Z,1024.14
2023-01-27T00:02:23.460Z,1024.16
2023-01-27T00:03:23.698Z,1024.11
2023-01-27T00:04:23.920Z,1024.09
2023-01-27T00:05:23.990Z,1024.13
2023-01-27T00:06:24.155Z,1024.13
2023-01-27T00:07:24.379Z,1024.14
2023-01-27T00:08:24.510Z,1024.17
2023-01-27T00:09:24.707Z,1024.14
2023-01-27T00:10:24.852Z,1024.16
2023-01-27T00:11:25.034Z,1024.14
2023-01-27T00:12:25.203Z,1024.14
2023-01-27T00:13:25.373Z,1024.19
2023-01-27T00:14:25.640Z,1024.18
2023-01-27T00:15:25.726Z,1024.18
2023-01-27T00:16:25.907Z,1024.16
2023-01-27T00:17:26.158Z,1024.16
2023-01-27T00:18:26.250Z,1024.14
2023-01-27T00:19:26.427Z,1024.17
2023-01-27T00:20:26.676Z,1024.19
2023-01-27T00:21:26.744Z,1024.13
2023-01-27T00:22:26.928Z,1024.16
2023-01-27T00:23:27.122Z,1024.14
2023-01-27T00:24:27.293Z,1024.19
2023-01-27T00:25:27.464Z,1024.14
2023-01-27T00:26:27.774Z,1024.13
2023-01-27T00:27:27.803Z,1024.15
2023-01-27T00:28:27.975Z,1024.16
2023-01-27T00:29:28.157Z,1024.15
2023-01-27T00:30:28.323Z,1024.12
2023-01-27T00:31:28.557Z,1024.11
2023-01-27T00:32:28.684Z,1024.12
2023-01-27T00:33:28.872Z,1024.12
2023-01-27T00:34:29.044Z,1024.13
2023-01-27T00:35:29.212Z,1024.13
2023-01-27T00:36:29.475Z,1024.14
2023-01-27T00:37:29.554Z,1024.15
2023-01-27T00:38:29.734Z,1024.14
2023-01-27T00:39:29.991Z,1024.15
2023-01-27T00:40:30.071Z,1024.12
2023-01-27T00:41:30.239Z,1024.10
2023-01-27T00:42:30.457Z,1024.08
2023-01-27T00:43:30.579Z,1024.08
2023-01-27T00:44:30.802Z,1024.06
2023-01-27T00:45:30.964Z,1024.14
2023-01-27T00:46:31.190Z,1024.11
2023-01-27T00:47:31.289Z,1024.11
2023-01-27T00:48:31.467Z,1024.18
2023-01-27T00:49:31.649Z,1024.15
2023-01-27T00:50:31.818Z,1024.17
2023-01-27T00:51:31.980Z,1024.18
2023-01-27T00:52:32.177Z,1024.20
2023-01-27T00:53:32.311Z,1024.20
2023-01-27T00:54:32.501Z,1024.19
2023-01-27T00:55:32.660Z,1024.22
2023-01-27T00:56:32.852Z,1024.18
2023-01-27T00:57:33.013Z,1024.19
2023-01-27T00:58:33.195Z,1024.18
2023-01-27T00:59:33.370Z,1024.16
2023-01-27T01:00:33.538Z,1024.20
2023-01-27T01:01:33.779Z,1024.19
2023-01-27T01:02:33.959Z,1024.22
2023-01-27T01:03:34.055Z,1024.24
2023-01-27T01:04:34.239Z,1024.23
2023-01-27T01:05:34.401Z,1024.25
2023-01-27T01:06:34.596Z,1024.26
2023-01-27T01:07:34.740Z,1024.26
2023-01-27T01:08:34.908Z,1024.24
2023-01-27T01:09:35.099Z,1024.25
2023-01-27T01:10:35.267Z,1024.27
2023-01-27T01:11:35.467Z,1024.29
2023-01-27T01:12:35.597Z,1024.30
2023-01-27T01:13:35.777Z,1024.31
2023-01-27T01:14:36.080Z,1024.32
2023-01-27T01:15:36.118Z,1024.33
2023-01-27T01:16:36.301Z,1024.34
2023-01-27T01:17:36.557Z,1024.37
2023-01-27T01:18:36.640Z,1024.36
2023-01-27T01:19:36.828Z,1024.34
2023-01-27T01:20:37.108Z,1024.34
2023-01-27T01:21:37.157Z,1024.31
2023-01-27T01:22:37.325Z,1024.29
2023-01-27T01:23:37.527Z,1024.28
2023-01-27T01:24:37.708Z,1024.29
2023-01-27T01:25:37.876Z,1024.29
2023-01-27T01:26:38.025Z,1024.23
2023-01-27T01:27:38.190Z,1024.32
2023-01-27T01:28:38.395Z,1024.28
2023-01-27T01:29:38.560Z,1024.31
2023-01-27T01:30:38.815Z,1024.31
2023-01-27T01:31:38.911Z,1024.32
2023-01-27T01:32:39.066Z,1024.33
2023-01-27T01:33:39.341Z,1024.33
2023-01-27T01:34:39.439Z,1024.30
2023-01-27T01:35:39.678Z,1024.34
2023-01-27T01:36:39.876Z,1024.31
2023-01-27T01:37:39.956Z,1024.34
2023-01-27T01:38:40.135Z,1024.36
2023-01-27T01:39:40.403Z,1024.37
2023-01-27T01:40:40.483Z,1024.35
2023-01-27T01:41:40.660Z,1024.36
2023-01-27T01:42:40.876Z,1024.35
2023-01-27T01:43:41.021Z,1024.39
2023-01-27T01:44:41.198Z,1024.35
2023-01-27T01:45:41.365Z,1024.39
2023-01-27T01:46:41.548Z,1024.38
2023-01-27T01:47:41.693Z,1024.36
2023-01-27T01:48:41.864Z,1024.35
2023-01-27T01:49:42.057Z,1024.40
2023-01-27T01:50:42.222Z,1024.37
2023-01-27T01:51:42.393Z,1024.38
2023-01-27T01:52:42.553Z,1024.37
2023-01-27T01:53:42.724Z,1024.39
2023-01-27T01:54:42.903Z,1024.33
2023-01-27T01:55:43.080Z,1024.36
2023-01-27T01:56:43.253Z,1024.35
2023-01-27T01:57:43.412Z,1024.38
2023-01-27T01:59:43.770Z,1024.39
2023-01-27T02:00:43.961Z,1024.39
2023-01-27T02:01:44.121Z,1024.44
2023-01-27T02:02:44.428Z,1024.43
2023-01-27T02:03:44.461Z,1024.44
2023-01-27T02:04:44.650Z,1024.48
2023-01-27T02:05:44.917Z,1024.48
2023-01-27T02:06:45.004Z,1024.49
2023-01-27T02:07:45.171Z,1024.46
2023-01-27T02:08:45.425Z,1024.45
2023-01-27T02:09:45.523Z,1024.49
2023-01-27T02:10:45.692Z,1024.43
2023-01-27T02:11:45.860Z,1024.46
2023-01-27T02:12:46.038Z,1024.44
2023-01-27T02:13:46.213Z,1024.47
2023-01-27T02:14:46.389Z,1024.48
2023-01-27T02:15:46.571Z,1024.43
2023-01-27T02:16:46.776Z,1024.41
2023-01-27T02:17:46.889Z,1024.44
2023-01-27T02:18:47.059Z,1024.43
2023-01-27T02:19:47.340Z,1024.42
2023-01-27T02:20:47.426Z,1024.42
2023-01-27T02:21:48.841Z,1024.44
2023-01-27T02:22:47.787Z,1024.42
2023-01-27T02:23:47.948Z,1024.44
2023-01-27T02:24:48.125Z,1024.43
2023-01-27T02:25:48.361Z,1024.46
2023-01-27T02:26:48.449Z,1024.44
2023-01-27T02:27:48.621Z,1024.45
2023-01-27T02:28:48.789Z,1024.45
2023-01-27T02:29:48.947Z,1024.41
2023-01-27T02:30:49.218Z,1024.44
2023-01-27T02:31:49.337Z,1024.51
2023-01-27T02:32:49.465Z,1024.44
2023-01-27T02:33:49.630Z,1024.44
2023-01-27T02:34:49.828Z,1024.46
2023-01-27T02:35:49.995Z,1024.45
2023-01-27T02:36:50.178Z,1024.45
2023-01-27T02:37:50.336Z,1024.45
2023-01-27T02:38:50.521Z,1024.48
2023-01-27T02:39:50.677Z,1024.48
2023-01-27T02:40:50.856Z,1024.48
2023-01-27T02:41:51.033Z,1024.49
2023-01-27T02:42:51.367Z,1024.52
2023-01-27T02:43:51.369Z,1024.52
2023-01-27T02:44:51.555Z,1024.52
2023-01-27T02:45:51.751Z,1024.51
2023-01-27T02:46:51.942Z,1024.49
2023-01-27T02:47:52.077Z,1024.53
2023-01-27T02:48:52.293Z,1024.51
2023-01-27T02:49:52.453Z,1024.53
2023-01-27T02:50:52.609Z,1024.55
2023-01-27T02:51:52.827Z,1024.51
2023-01-27T02:52:52.974Z,1024.55
2023-01-27T02:53:53.149Z,1024.58
2023-01-27T02:54:53.374Z,1024.60
2023-01-27T02:55:53.494Z,1024.57
2023-01-27T02:56:53.678Z,1024.61
2023-01-27T02:57:53.843Z,1024.66
2023-01-27T02:58:54.091Z,1024.67
2023-01-27T02:59:54.210Z,1024.64
2023-01-27T03:00:54.342Z,1024.67
2023-01-27T03:01:54.536Z,1024.66
2023-01-27T03:02:54.673Z,1024.70
2023-01-27T03:03:54.844Z,1024.68
2023-01-27T03:04:55.090Z,1024.69
2023-01-27T03:05:55.196Z,1024.68
2023-01-27T03:06:55.369Z,1024.69
2023-01-27T03:07:55.538Z,1024.70
2023-01-27T03:08:55.710Z,1024.77
2023-01-27T03:09:55.872Z,1024.75
2023-01-27T03:10:56.056Z,1024.73
2023-01-27T03:11:56.230Z,1024.76
2023-01-27T03:12:56.400Z,1024.73
2023-01-27T03:13:56.561Z,1024.72
2023-01-27T03:14:56.747Z,1024.73
2023-01-27T03:15:57.045Z,1024.69
2023-01-27T03:16:57.090Z,1024.69
2023-01-27T03:17:57.259Z,1024.64
2023-01-27T03:18:57.442Z,1024.63
2023-01-27T03:19:57.617Z,1024.62
2023-01-27T03:20:57.802Z,1024.61
2023-01-27T03:21:57.974Z,1024.62
2023-01-27T03:22:58.139Z,1024.62
2023-01-27T03:23:58.358Z,1024.64
2023-01-27T03:24:58.501Z,1024.65
2023-01-27T03:25:58.691Z,1024.64
2023-01-27T03:26:58.822Z,1024.64
2023-01-27T03:27:59.008Z,1024.62
2023-01-27T03:28:59.171Z,1024.65
2023-01-27T03:29:59.351Z,1024.63
2023-01-27T03:30:59.682Z,1024.59
2023-01-27T03:31:59.747Z,1024.62
2023-01-27T03:32:59.941Z,1024.62
2023-01-27T03:34:00.039Z,1024.64
2023-01-27T03:35:00.207Z,1024.60
2023-01-27T03:36:00.389Z,1024.62
2023-01-27T03:37:00.596Z,1024.63
2023-01-27T03:38:00.730Z,1024.70
2023-01-27T03:39:00.985Z,1024.64
2023-01-27T03:40:01.060Z,1024.71
2023-01-27T03:41:01.238Z,1024.70
2023-01-27T03:42:01.415Z,1024.69
2023-01-27T03:43:01.614Z,1024.70
2023-01-27T03:44:01.756Z,1024.71
2023-01-27T03:45:01.942Z,1024.69
2023-01-27T03:46:02.216Z,1024.67
2023-01-27T03:47:02.306Z,1024.69
2023-01-27T03:48:02.552Z,1024.72
2023-01-27T03:49:02.668Z,1024.71
2023-01-27T03:50:02.856Z,1024.75
2023-01-27T03:51:03.029Z,1024.74
2023-01-27T03:52:03.216Z,1024.74
2023-01-27T03:53:03.608Z,1024.75
2023-01-27T03:54:03.558Z,1024.72
2023-01-27T03:55:03.735Z,1024.72
2023-01-27T03:56:03.964Z,1024.72
2023-01-27T03:57:04.086Z,1024.72
2023-01-27T03:58:04.255Z,1024.71
2023-01-27T03:59:04.497Z,1024.71
2023-01-27T04:00:04.653Z,1024.69
2023-01-27T04:01:04.772Z,1024.73
2023-01-27T04:02:04.944Z,1024.69
2023-01-27T04:03:05.133Z,1024.69
2023-01-27T04:04:05.255Z,1024.67
2023-01-27T04:05:05.454Z,1024.65
2023-01-27T04:06:05.618Z,1024.66
2023-01-27T04:07:05.784Z,1024.67
2023-01-27T04:08:05.965Z,1024.64
2023-01-27T04:09:06.124Z,1024.64
2023-01-27T04:10:06.374Z,1024.63
2023-01-27T04:11:06.514Z,1024.61
2023-01-27T04:12:06.691Z,1024.59
2023-01-27T04:13:06.853Z,1024.56
2023-01-27T04:14:07.034Z,1024.59
2023-01-27T04:15:07.323Z,1024.58
2023-01-27T04:16:07.399Z,1024.57
2023-01-27T04:17:07.572Z,1024.54
2023-01-27T04:18:07.802Z,1024.56
2023-01-27T04:19:07.903Z,1024.58
2023-01-27T04:20:08.073Z,1024.64
2023-01-27T04:21:08.291Z,1024.65
2023-01-27T04:22:08.431Z,1024.66
2023-01-27T04:23:08.593Z,1024.72
2023-01-27T04:24:08.872Z,1024.72
2023-01-27T04:25:08.954Z,1024.72
2023-01-27T04:26:09.142Z,1024.72
2023-01-27T04:27:09.274Z,1024.74
2023-01-27T04:28:09.450Z,1024.78
2023-01-27T04:29:09.617Z,1024.78
2023-01-27T04:30:09.786Z,1024.77
2023-01-27T04:31:10.165Z,1024.81
2023-01-27T04:32:10.123Z,1024.82
2023-01-27T04:33:10.300Z,1024.83
2023-01-27T04:34:10.546Z,1024.87
2023-01-27T04:35:11.143Z,1024.86
2023-01-27T04:36:10.840Z,1024.87
2023-01-27T04:37:11.051Z,1024.87
2023-01-27T04:38:12.857Z,1024.86
2023-01-27T04:39:11.376Z,1024.85
2023-01-27T04:40:11.582Z,1024.78
2023-01-27T04:41:11.721Z,1024.82
2023-01-27T04:42:11.892Z,1024.82
2023-01-27T04:43:12.056Z,1024.82
2023-01-27T04:44:12.234Z,1024.81
2023-01-27T04:45:12.716Z,1024.82
2023-01-27T04:46:12.578Z,1024.85
2023-01-27T04:47:12.739Z,1024.84
2023-01-27T04:48:12.903Z,1024.81
2023-01-27T04:49:13.071Z,1024.81
2023-01-27T04:50:13.306Z,1024.81
2023-01-27T04:51:13.396Z,1024.79
2023-01-27T04:52:13.568Z,1024.84
2023-01-27T04:53:13.831Z,1024.84
2023-01-27T04:54:13.918Z,1024.83
2023-01-27T04:55:14.355Z,1024.85
2023-01-27T04:56:14.325Z,1024.87
2023-01-27T04:57:14.409Z,1024.89
2023-01-27T04:58:14.590Z,1024.92
2023-01-27T04:59:14.768Z,1024.91
2023-01-27T05:00:16.605Z,1024.90
2023-01-27T05:01:15.108Z,1024.94
2023-01-27T05:02:15.405Z,1024.95
2023-01-27T05:03:15.483Z,1025.00
2023-01-27T05:04:15.607Z,1024.96
2023-01-27T05:05:16.023Z,1024.96
2023-01-27T05:06:15.959Z,1024.98
2023-01-27T05:07:16.130Z,1025.03
2023-01-27T05:08:16.304Z,1025.01
2023-01-27T05:09:16.467Z,1025.03
2023-01-27T05:10:16.666Z,1025.05
2023-01-27T05:11:16.809Z,1025.04
2023-01-27T05:12:16.978Z,1025.02
2023-01-27T05:13:17.155Z,1025.06
2023-01-27T05:14:17.339Z,1025.08
2023-01-27T05:15:17.535Z,1025.07
2023-01-27T05:16:17.835Z,1025.10
2023-01-27T05:17:17.937Z,1025.11
2023-01-27T05:18:18.016Z,1025.07
2023-01-27T05:19:18.197Z,1025.03
2023-01-27T05:20:18.480Z,1025.05
2023-01-27T05:21:18.566Z,1025.07
2023-01-27T05:22:18.724Z,1025.08
2023-01-27T05:23:18.932Z,1025.10
2023-01-27T05:24:19.108Z,1025.11
2023-01-27T05:25:19.222Z,1025.09
2023-01-27T05:26:19.399Z,1025.12
2023-01-27T05:27:19.547Z,1025.14
2023-01-27T05:28:19.714Z,1025.15
2023-01-27T05:29:19.894Z,1025.19
2023-01-27T05:30:20.075Z,1025.20
2023-01-27T05:31:20.439Z,1025.17
2023-01-27T05:32:20.438Z,1025.14
2023-01-27T05:33:20.602Z,1025.17
2023-01-27T05:34:20.866Z,1025.20
2023-01-27T05:35:20.953Z,1025.21
2023-01-27T05:36:21.153Z,1025.26
2023-01-27T05:37:21.287Z,1025.26
2023-01-27T05:38:21.461Z,1025.27
2023-01-27T05:39:21.703Z,1025.35
2023-01-27T05:40:21.798Z,1025.32
2023-01-27T05:41:21.981Z,1025.33
2023-01-27T05:42:22.222Z,1025.34
2023-01-27T05:43:22.321Z,1025.36
2023-01-27T05:44:22.483Z,1025.38
2023-01-27T05:45:22.672Z,1025.38
2023-01-27T05:46:22.860Z,1025.40
2023-01-27T05:47:23.058Z,1025.40
2023-01-27T05:48:23.163Z,1025.37
2023-01-27T05:49:23.335Z,1025.39
2023-01-27T05:50:23.523Z,1025.37
2023-01-27T05:51:23.725Z,1025.39
2023-01-27T05:52:23.867Z,1025.44
2023-01-27T05:53:24.043Z,1025.36
2023-01-27T05:54:24.212Z,1025.41
2023-01-27T05:55:24.381Z,1025.39
2023-01-27T05:56:24.557Z,1025.41
2023-01-27T05:57:24.733Z,1025.38
2023-01-27T05:58:24.906Z,1025.35
2023-01-27T05:59:25.083Z,1025.38
2023-01-27T06:00:25.257Z,1025.33
2023-01-27T06:01:25.430Z,1025.36
2023-01-27T06:02:25.633Z,1025.38
2023-01-27T06:03:25.773Z,1025.37
2023-01-27T06:04:25.956Z,1025.38
2023-01-27T06:05:26.244Z,1025.41
2023-01-27T06:06:26.310Z,1025.46
2023-01-27T06:07:26.469Z,1025.40
2023-01-27T06:08:26.720Z,1025.40
2023-01-27T06:09:26.798Z,1025.39
2023-01-27T06:10:27.019Z,1025.39
2023-01-27T06:11:27.215Z,1025.40
2023-01-27T06:12:27.339Z,1025.41
2023-01-27T06:13:27.508Z,1025.37
2023-01-27T06:14:27.699Z,1025.36
2023-01-27T06:15:27.871Z,1025.34
2023-01-27T06:16:28.046Z,1025.33
2023-01-27T06:17:28.188Z,1025.37
2023-01-27T06:18:28.359Z,1025.33
2023-01-27T06:19:28.528Z,1025.35
2023-01-27T06:20:28.718Z,1025.33
2023-01-27T06:21:28.909Z,1025.34
2023-01-27T06:22:29.067Z,1025.37
2023-01-27T06:23:29.252Z,1025.34
2023-01-27T06:24:29.432Z,1025.39
2023-01-27T06:25:29.627Z,1025.38
2023-01-27T06:26:29.781Z,1025.40
2023-01-27T06:27:29.992Z,1025.42
2023-01-27T06:28:30.330Z,1025.44
2023-01-27T06:29:30.283Z,1025.45
2023-01-27T06:30:30.608Z,1025.46
2023-01-27T06:31:30.747Z,1025.44
2023-01-27T06:32:30.785Z,1025.43
2023-01-27T06:33:31.037Z,1025.40
2023-01-27T06:34:31.117Z,1025.39
2023-01-27T06:35:31.302Z,1025.42
2023-01-27T06:36:31.511Z,1025.43
2023-01-27T06:37:31.633Z,1025.40
2023-01-27T06:38:31.849Z,1025.43
2023-01-27T06:39:31.980Z,1025.45
2023-01-27T06:40:32.179Z,1025.45
2023-01-27T06:41:32.334Z,1025.45
2023-01-27T06:42:32.527Z,1025.44
2023-01-27T06:43:32.687Z,1025.48
2023-01-27T06:44:32.885Z,1025.50
2023-01-27T06:45:33.050Z,1025.52
2023-01-27T06:46:33.254Z,1025.51
2023-01-27T06:47:33.363Z,1025.48
2023-01-27T06:48:33.576Z,1025.46
2023-01-27T06:49:33.966Z,1025.51
2023-01-27T06:50:33.924Z,1025.51
2023-01-27T06:51:34.085Z,1025.55
2023-01-27T06:52:34.263Z,1025.51
2023-01-27T06:53:34.403Z,1025.51
2023-01-27T06:54:34.583Z,1025.53
2023-01-27T06:55:34.792Z,1025.56
2023-01-27T06:56:34.935Z,1025.56
2023-01-27T06:57:35.103Z,1025.56
2023-01-27T06:58:35.267Z,1025.60
2023-01-27T06:59:35.415Z,1025.61
2023-01-27T07:00:35.664Z,1025.61
2023-01-27T07:01:35.830Z,1025.60
2023-01-27T07:02:35.983Z,1025.59
2023-01-27T07:03:43.606Z,1025.57
2023-01-27T07:04:36.315Z,1025.56
2023-01-27T07:05:36.513Z,1025.56
2023-01-27T07:06:36.669Z,1025.53
2023-01-27T07:07:36.845Z,1025.59
2023-01-27T07:08:37.036Z,1025.61
2023-01-27T07:09:51.463Z,1025.59
2023-01-27T07:10:38.411Z,1025.61
2023-01-27T07:11:37.580Z,1025.61
2023-01-27T07:12:37.759Z,1025.63
2023-01-27T07:13:37.963Z,1025.63
2023-01-27T07:14:38.111Z,1025.65
2023-01-27T07:15:38.303Z,1025.67
2023-01-27T07:16:38.465Z,1025.68
2023-01-27T07:17:38.655Z,1025.69
2023-01-27T07:18:38.838Z,1025.68
2023-01-27T07:19:39.021Z,1025.71
2023-01-27T07:20:39.219Z,1025.74
2023-01-27T07:21:39.339Z,1025.78
2023-01-27T07:22:39.487Z,1025.79
2023-01-27T07:23:39.678Z,1025.80
2023-01-27T07:24:39.871Z,1025.81
2023-01-27T07:25:40.113Z,1025.78
2023-01-27T07:26:40.191Z,1025.80
2023-01-27T07:27:40.378Z,1025.78
2023-01-27T07:28:40.596Z,1025.76
2023-01-27T07:29:40.769Z,1025.80
2023-01-27T07:30:41.018Z,1025.76
2023-01-27T07:31:41.178Z,1025.79
2023-01-27T07:32:41.276Z,1025.80
2023-01-27T07:33:41.435Z,1025.84
2023-01-27T07:34:41.613Z,1025.83
2023-01-27T07:35:41.807Z,1025.85
2023-01-27T07:36:41.957Z,1025.84
2023-01-27T07:37:42.128Z,1025.84
2023-01-27T07:38:42.297Z,1025.88
2023-01-27T07:39:42.483Z,1025.89
2023-01-27T07:40:42.693Z,1025.89
2023-01-27T07:41:42.872Z,1025.89
2023-01-27T07:42:43.047Z,1025.90
2023-01-27T07:43:43.229Z,1025.89
2023-01-27T07:44:43.417Z,1025.90
2023-01-27T07:45:43.630Z,1025.95
2023-01-27T07:46:43.786Z,1025.93
2023-01-27T07:47:43.931Z,1025.95
2023-01-27T07:48:44.115Z,1025.91
2023-01-27T07:49:44.269Z,1025.94
2023-01-27T07:50:44.479Z,1025.94
2023-01-27T07:51:44.646Z,1025.94
2023-01-27T07:52:44.838Z,1025.93
2023-01-27T07:53:45.001Z,1025.94
2023-01-27T07:54:45.156Z,1025.95
2023-01-27T07:55:45.327Z,1025.92
2023-01-27T07:56:45.474Z,1025.96
2023-01-27T07:57:45.645Z,1025.98
2023-01-27T07:58:45.841Z,1025.95
2023-01-27T07:59:46.020Z,1025.98
2023-01-27T08:00:46.250Z,1026.03
2023-01-27T08:01:48.203Z,1025.98
2023-01-27T08:02:46.536Z,1025.90
2023-01-27T08:03:46.707Z,1025.95
2023-01-27T08:04:52.846Z,1025.98
2023-01-27T08:05:48.095Z,1025.97
2023-01-27T08:06:47.271Z,1025.99
2023-01-27T08:07:47.444Z,1025.98
2023-01-27T08:08:47.635Z,1025.95
2023-01-27T08:09:47.816Z,1025.97
2023-01-27T08:10:48.010Z,1025.96
2023-01-27T08:11:48.178Z,1025.98
2023-01-27T08:12:48.385Z,1025.93
2023-01-27T08:13:48.525Z,1025.97
2023-01-27T08:14:48.707Z,1025.96
2023-01-27T08:15:48.902Z,1025.98
2023-01-27T08:16:49.116Z,1025.99
2023-01-27T08:17:49.231Z,1025.97
2023-01-27T08:18:49.418Z,1025.99
2023-01-27T08:19:49.601Z,1025.99
2023-01-27T08:20:49.799Z,1025.98
2023-01-27T08:21:49.983Z,1026.03
2023-01-27T08:22:50.130Z,1026.01
2023-01-27T08:23:50.347Z,1026.00
2023-01-27T08:24:50.517Z,1026.02
2023-01-27T08:25:50.658Z,1026.03
2023-01-27T08:26:50.872Z,1026.07
2023-01-27T08:27:51.041Z,1026.07
2023-01-27T08:28:51.215Z,1026.02
2023-01-27T08:29:51.377Z,1026.02
2023-01-27T08:30:51.624Z,1026.06
2023-01-27T08:31:51.781Z,1026.03
2023-01-27T08:32:51.891Z,1026.05
2023-01-27T08:33:52.050Z,1025.98
2023-01-27T08:34:52.241Z,1026.04
2023-01-27T08:35:52.436Z,1026.04
2023-01-27T08:36:52.631Z,1026.06
2023-01-27T08:37:52.761Z,1026.03
2023-01-27T08:38:52.928Z,1026.09
2023-01-27T08:39:53.105Z,1026.09
2023-01-27T08:40:53.303Z,1026.11
2023-01-27T08:41:53.471Z,1026.15
2023-01-27T08:42:53.642Z,1026.10
2023-01-27T08:43:53.804Z,1026.14
2023-01-27T08:44:53.989Z,1026.15
2023-01-27T08:45:54.183Z,1026.17
2023-01-27T08:46:54.359Z,1026.17
2023-01-27T08:47:54.504Z,1026.17
2023-01-27T08:48:54.696Z,1026.12
2023-01-27T08:49:54.851Z,1026.17
2023-01-27T08:50:55.031Z,1026.17
2023-01-27T08:51:55.188Z,1026.19
2023-01-27T08:52:55.370Z,1026.14
2023-01-27T08:53:55.543Z,1026.16
2023-01-27T08:54:55.730Z,1026.18
2023-01-27T08:55:55.887Z,1026.15
2023-01-27T08:56:56.105Z,1026.17
2023-01-27T08:57:56.266Z,1026.16
2023-01-27T08:58:56.430Z,1026.16
2023-01-27T08:59:56.599Z,1026.16
2023-01-27T09:00:56.816Z,1026.24
2023-01-27T09:01:56.993Z,1026.21
2023-01-27T09:02:57.159Z,1026.17
2023-01-27T09:03:57.334Z,1026.26
2023-01-27T09:04:57.499Z,1026.25
2023-01-27T09:05:57.678Z,1026.22
2023-01-27T09:06:57.869Z,1026.26
2023-01-27T09:07:58.016Z,1026.26
2023-01-27T09:08:58.206Z,1026.28
2023-01-27T09:10:13.341Z,1026.29
2023-01-27T09:10:59.536Z,1026.35
2023-01-27T09:11:58.713Z,1026.33
2023-01-27T09:12:58.854Z,1026.31
2023-01-27T09:13:59.026Z,1026.34
2023-01-27T09:14:59.226Z,1026.28
2023-01-27T09:15:59.389Z,1026.34
2023-01-27T09:16:59.557Z,1026.37
2023-01-27T09:17:59.708Z,1026.36
2023-01-27T09:18:59.879Z,1026.37
2023-01-27T09:20:00.064Z,1026.38
2023-01-27T09:21:00.245Z,1026.38
2023-01-27T09:22:00.433Z,1026.42
2023-01-27T09:23:00.596Z,1026.42
2023-01-27T09:24:00.824Z,1026.40
2023-01-27T09:25:00.929Z,1026.38
2023-01-27T09:26:01.116Z,1026.39
2023-01-27T09:27:01.342Z,1026.37
2023-01-27T09:28:01.472Z,1026.39
2023-01-27T09:29:01.657Z,1026.42
2023-01-27T09:30:01.830Z,1026.42
2023-01-27T09:31:02.123Z,1026.44
2023-01-27T09:32:02.273Z,1026.47
2023-01-27T09:33:02.384Z,1026.52
2023-01-27T09:34:02.563Z,1026.51
2023-01-27T09:35:02.732Z,1026.51
2023-01-27T09:36:02.890Z,1026.51
2023-01-27T09:37:03.074Z,1026.54
2023-01-27T09:38:03.238Z,1026.53
2023-01-27T09:39:03.406Z,1026.50
2023-01-27T09:40:03.575Z,1026.54
2023-01-27T09:41:03.769Z,1026.56
2023-01-27T09:42:03.945Z,1026.53
2023-01-27T09:43:04.123Z,1026.53
2023-01-27T09:44:04.302Z,1026.59
2023-01-27T09:45:04.458Z,1026.54
2023-01-27T09:46:04.679Z,1026.59
2023-01-27T09:47:04.829Z,1026.59
2023-01-27T09:48:04.963Z,1026.56
2023-01-27T09:49:05.151Z,1026.58
2023-01-27T09:50:05.323Z,1026.51
2023-01-27T09:51:05.522Z,1026.50
2023-01-27T09:52:05.703Z,1026.55
2023-01-27T09:53:05.881Z,1026.55
2023-01-27T09:54:06.053Z,1026.59
2023-01-27T09:55:06.263Z,1026.55
2023-01-27T09:56:06.417Z,1026.55
2023-01-27T09:57:06.604Z,1026.57
2023-01-27T09:58:06.772Z,1026.58
2023-01-27T09:59:06.968Z,1026.60
2023-01-27T10:00:07.196Z,1026.64
2023-01-27T10:01:07.340Z,1026.60
2023-01-27T10:02:07.512Z,1026.56
2023-01-27T10:03:07.691Z,1026.61
2023-01-27T10:04:07.861Z,1026.62
2023-01-27T10:05:08.055Z,1026.61
2023-01-27T10:06:08.266Z,1026.62
2023-01-27T10:07:08.410Z,1026.60
2023-01-27T10:08:08.582Z,1026.55
2023-01-27T10:09:08.771Z,1026.64
2023-01-27T10:10:08.941Z,1026.63
2023-01-27T10:11:09.134Z,1026.59
2023-01-27T10:12:09.329Z,1026.64
2023-01-27T10:13:09.471Z,1026.61
2023-01-27T10:14:09.662Z,1026.64
2023-01-27T10:15:09.843Z,1026.65
2023-01-27T10:16:10.071Z,1026.63
2023-01-27T10:17:10.220Z,1026.67
2023-01-27T10:18:10.350Z,1026.64
2023-01-27T10:19:10.537Z,1026.66
2023-01-27T10:20:10.780Z,1026.64
2023-01-27T10:21:10.879Z,1026.65
2023-01-27T10:22:11.068Z,1026.62
2023-01-27T10:23:11.219Z,1026.61
2023-01-27T10:24:11.436Z,1026.62
2023-01-27T10:25:11.559Z,1026.66
2023-01-27T10:26:11.760Z,1026.69
2023-01-27T10:27:11.919Z,1026.68
2023-01-27T10:28:12.095Z,1026.70
2023-01-27T10:29:12.249Z,1026.68
2023-01-27T10:30:12.868Z,1026.70
2023-01-27T10:31:12.719Z,1026.72
2023-01-27T10:32:12.777Z,1026.71
2023-01-27T10:33:12.958Z,1026.74
2023-01-27T10:34:13.136Z,1026.73
2023-01-27T10:35:13.321Z,1026.74
2023-01-27T10:36:13.505Z,1026.77
2023-01-27T10:37:13.713Z,1026.81
2023-01-27T10:38:13.849Z,1026.75
2023-01-27T10:39:14.032Z,1026.80
2023-01-27T10:40:14.533Z,1026.80
2023-01-27T10:41:14.444Z,1026.78
2023-01-27T10:42:14.554Z,1026.71
2023-01-27T10:43:14.709Z,1026.74
2023-01-27T10:44:14.888Z,1026.73
2023-01-27T10:45:15.084Z,1026.75
2023-01-27T10:46:15.259Z,1026.74
2023-01-27T10:47:15.453Z,1026.79
2023-01-27T10:48:15.632Z,1026.75
2023-01-27T10:49:15.808Z,1026.77
2023-01-27T10:50:16.078Z,1026.71
2023-01-27T10:51:16.184Z,1026.78
2023-01-27T10:52:16.377Z,1026.78
2023-01-27T10:53:16.558Z,1026.75
2023-01-27T10:54:16.783Z,1026.77
2023-01-27T10:55:16.885Z,1026.77
2023-01-27T10:56:17.058Z,1026.78
2023-01-27T10:57:17.256Z,1026.81
2023-01-27T10:58:17.417Z,1026.75
2023-01-27T10:59:17.610Z,1026.71
2023-01-27T11:01:21.234Z,1026.72
2023-01-27T11:02:18.177Z,1026.71
2023-01-27T11:03:18.275Z,1026.72
2023-01-27T11:04:18.505Z,1026.74
2023-01-27T11:05:18.645Z,1026.69
2023-01-27T11:06:18.856Z,1026.66
2023-01-27T11:07:19.008Z,1026.70
2023-01-27T11:08:19.174Z,1026.69
2023-01-27T11:09:19.355Z,1026.65
2023-01-27T11:10:19.551Z,1026.69
2023-01-27T11:11:19.714Z,1026.67
2023-01-27T11:12:19.913Z,1026.68
2023-01-27T11:13:20.062Z,1026.67
2023-01-27T11:14:20.234Z,1026.71
2023-01-27T11:15:20.425Z,1026.71
2023-01-27T11:16:20.620Z,1026.78
2023-01-27T11:17:20.871Z,1026.71
2023-01-27T11:18:20.963Z,1026.66
2023-01-27T11:19:21.145Z,1026.66
2023-01-27T11:20:21.368Z,1026.69
2023-01-27T11:21:21.506Z,1026.73
2023-01-27T11:22:21.705Z,1026.70
2023-01-27T11:23:21.874Z,1026.71
2023-01-27T11:24:22.081Z,1026.73
2023-01-27T11:25:22.224Z,1026.66
2023-01-27T11:26:23.792Z,1026.68
2023-01-27T11:27:22.598Z,1026.70
2023-01-27T11:28:22.776Z,1026.64
2023-01-27T11:29:22.945Z,1026.70
2023-01-27T11:30:23.182Z,1026.71
2023-01-27T11:31:23.426Z,1026.68
2023-01-27T11:32:23.506Z,1026.67
2023-01-27T11:33:23.687Z,1026.67
2023-01-27T11:34:23.861Z,1026.63
2023-01-27T11:35:24.068Z,1026.66
2023-01-27T11:36:24.231Z,1026.61
2023-01-27T11:37:24.426Z,1026.62
2023-01-27T11:38:24.614Z,1026.66
2023-01-27T11:39:24.753Z,1026.67
2023-01-27T11:40:24.941Z,1026.65
2023-01-27T11:41:25.182Z,1026.59
2023-01-27T11:42:25.322Z,1026.61
2023-01-27T11:43:25.462Z,1026.61
2023-01-27T11:44:25.644Z,1026.64
2023-01-27T11:45:25.832Z,1026.66
2023-01-27T11:46:26.012Z,1026.68
2023-01-27T11:47:26.216Z,1026.68
2023-01-27T11:48:26.351Z,1026.59
2023-01-27T11:49:26.530Z,1026.60
2023-01-27T11:50:26.711Z,1026.58
2023-01-27T11:51:26.900Z,1026.59
2023-01-27T11:52:27.117Z,1026.59
2023-01-27T11:53:27.261Z,1026.52
2023-01-27T11:54:27.451Z,1026.52
2023-01-27T11:55:27.636Z,1026.48
2023-01-27T11:56:27.801Z,1026.49
2023-01-27T11:57:28.004Z,1026.49
2023-01-27T11:58:28.150Z,1026.53
2023-01-27T11:59:28.326Z,1026.58
2023-01-27T12:00:28.511Z,1026.55
2023-01-27T12:01:28.658Z,1026.57
2023-01-27T12:02:28.875Z,1026.60
2023-01-27T12:03:29.047Z,1026.64
2023-01-27T12:04:29.211Z,1026.62
2023-01-27T12:05:29.369Z,1026.57
2023-01-27T12:06:29.550Z,1026.57
2023-01-27T12:07:29.730Z,1026.59
2023-01-27T12:08:29.911Z,1026.63
2023-01-27T12:09:30.092Z,1026.64